Time;durP1;ratioP1;P1;durP2;ratioP2;P2;SDS_P1;SDS_P2;PMS_P1;PMS_P2;Temp;Humidity;BMP_temperature;BMP_pressure;BME280_temperature;BME280_humidity;BME280_pressure;Samples;Min_cycle;Max_cycle;Signal;HPM_P1;HPM_P2
2022/10/28 15:09:27;;;;;;;;;;;;;;;15.81;63.23;102190.44;4584070;28;13879861;-89
2022/10/28 15:12:15;;;;;;;;;;;;;;;15.79;63.01;102195.19;5049641;28;19921;-87
2022/10/28 15:14:45;;;;;;;;;;;;;;;15.75;63.17;102190.22;5038186;28;20030;-89
2022/10/28 15:17:13;;;;;;;;;;;;;;;15.67;63.81;102193.72;5060304;28;19946;-89
2022/10/28 15:19:45;;;;;;;;;;;;;;;15.69;63.67;102190.84;5052217;28;20115;-87
2022/10/28 15:22:45;;;;;;;;;;;;;;;15.64;63.85;102196.75;5072235;28;19931;-86
2022/10/28 15:25:12;;;;;;;;;;;;;;;15.58;64.04;102191.94;5039963;28;19970;-89
2022/10/28 15:27:50;;;;;;;;;;;;;;;15.57;63.55;102198.38;5049910;28;19930;-88
2022/10/28 15:30:35;;;;;;;;;;;;;;;15.45;64.02;102196.88;5057868;28;20456;-90
2022/10/28 15:33:18;;;;;;;;;;;;;;;15.45;64.21;102191.47;5028648;28;19931;-87
2022/10/28 15:35:51;;;;;;;;;;;;;;;15.30;65.04;102189.31;5043225;28;19925;-88
2022/10/28 15:38:25;;;;;;;;;;;;;;;15.23;64.87;102192.81;5050118;28;19921;-86
2022/10/28 15:40:57;;;;;;;;;;;;;;;15.21;65.10;102201.06;5056596;28;19920;-86
2022/10/28 15:43:28;;;;;;;;;;;;;;;15.18;64.95;102196.81;5057126;28;20268;-88
2022/10/28 15:46:12;;;;;;;;;;;;;;;15.17;65.08;102195.13;5064089;28;19915;-88
2022/10/28 15:51:38;;;;;;;;;;;;;;;15.12;65.26;102194.72;5059354;28;19921;-90
2022/10/28 15:54:50;;;;;;;;;;;;;;;15.05;65.35;102196.34;5045762;28;20027;-90
2022/10/28 15:57:43;;;;;;;;;;;;;;;14.96;65.43;102191.81;5054469;28;19927;-88
2022/10/28 16:00:33;;;;;;;;;;;;;;;14.84;66.03;102193.06;5030319;28;20019;-86
2022/10/28 16:02:59;;;;;;;;;;;;;;;14.82;66.11;102195.06;5016286;28;19987;-86
2022/10/28 16:05:43;;;;;;;;;;;;;;;14.78;66.62;102195.38;5063204;28;19913;-88
2022/10/28 16:08:38;;;;;;;;;;;;;;;;;;;;;
2022/10/28 16:11:07;;;;;;;;;;;;;;;14.73;66.63;102196.84;5052874;28;20373;-88
2022/10/28 16:13:33;;;;;;;;;;;;;;;14.68;66.74;102191.88;5013543;28;19922;-88
2022/10/28 16:16:11;;;;;;;;;;;;;;;14.63;67.13;102196.00;5017584;28;19928;-87
2022/10/28 16:18:38;;;;;;;;;;;;;;;14.62;67.25;102194.31;5013889;28;19936;-86
2022/10/28 16:21:05;;;;;;;;;;;;;;;14.62;67.05;102197.03;5006633;28;19929;-88
2022/10/28 16:23:36;;;;;;;;;;;;;;;14.61;67.40;102203.44;5021488;28;19925;-87
2022/10/28 16:26:33;;;;;;;;;;;;;;;14.57;67.46;102203.75;5047122;28;19920;-89
2022/10/28 16:29:39;;;;;;;;;;;;;;;14.54;67.88;102201.34;5032970;28;20000;-90
2022/10/28 16:32:06;;;;;;;;;;;;;;;14.49;68.24;102206.31;5036935;28;19991;-90
2022/10/28 16:34:35;;;;;;;;;;;;;;;14.48;68.25;102201.91;5034346;28;19913;-90
2022/10/28 16:37:01;;;;;;;;;;;;;;;14.42;68.42;102199.81;5060326;28;19929;-89
2022/10/28 16:40:00;;;;;;;;;;;;;;;14.42;68.46;102207.03;5170956;23;19925;-88
2022/10/28 17:06:30;;;;;;;;;;;;;;;14.18;69.63;102207.56;5029993;28;19925;-89
2022/10/28 17:09:15;;;;;;;;;;;;;;;14.15;69.83;102209.56;4995552;28;19926;-93
2022/10/28 17:11:46;;;;;;;;;;;;;;;14.09;69.94;102210.16;5012692;28;19921;-90
2022/10/28 17:14:38;;;;;;;;;;;;;;;14.12;69.91;102209.00;5030203;28;19933;-91
2022/10/28 17:17:13;;;;;;;;;;;;;;;14.05;70.13;102208.75;5002875;28;20004;-91
2022/10/28 17:20:09;;;;;;;;;;;;;;;14.06;70.10;102201.47;5004125;28;19932;-89
2022/10/28 17:22:59;;;;;;;;;;;;;;;13.98;70.50;102206.75;5013571;28;19922;-92
2022/10/28 17:25:54;;;;;;;;;;;;;;;13.98;70.77;102207.63;5014633;28;19947;-90
2022/10/28 17:33:39;;;;;;;;;;;;;;;13.91;70.99;102209.22;5048657;23;19957;-93
2022/10/28 17:38:42;;;;;;;;;;;;;;;13.87;71.49;102207.78;5027580;28;19925;-91
2022/10/28 17:41:18;;;;;;;;;;;;;;;13.88;71.40;102206.78;5031464;28;19976;-90
2022/10/28 17:44:09;;;;;;;;;;;;;;;13.89;71.41;102203.94;5031242;28;19975;-91
2022/10/28 17:46:36;;;;;;;;;;;;;;;13.90;71.64;102208.31;5015645;28;19905;-91
2022/10/28 17:49:11;;;;;;;;;;;;;;;13.85;71.79;102190.84;5027759;28;20454;-91
2022/10/28 17:52:02;;;;;;;;;;;;;;;13.84;72.08;102206.22;5026652;28;19918;-91
2022/10/28 17:54:47;;;;;;;;;;;;;;;13.82;71.95;102202.81;5011419;28;19910;-91
2022/10/28 17:59:49;;;;;;;;;;;;;;;13.81;72.39;102205.66;5107549;23;19950;-88
2022/10/28 18:02:35;;;;;;;;;;;;;;;13.85;72.50;102199.81;5039898;28;19928;-91
2022/10/28 18:05:23;;;;;;;;;;;;;;;13.84;72.30;102200.81;5033387;28;19917;-92
2022/10/28 18:08:09;;;;;;;;;;;;;;;13.80;72.62;102196.69;5042952;28;19932;-90
2022/10/28 18:10:41;;;;;;;;;;;;;;;13.79;72.31;102197.69;5054105;28;19932;-90
2022/10/28 18:13:28;;;;;;;;;;;;;;;13.80;72.48;102198.53;5052413;28;19921;-90
2022/10/28 18:18:29;;;;;;;;;;;;;;;13.71;73.18;102190.28;5027681;28;19932;-88
2022/10/28 18:21:01;;;;;;;;;;;;;;;13.70;73.21;102199.41;5023019;28;19922;-91
2022/10/28 18:24:02;;;;;;;;;;;;;;;13.65;73.47;102195.41;5025786;28;19932;-88
2022/10/28 18:26:31;;;;;;;;;;;;;;;13.62;73.43;102191.16;5010360;28;19933;-90
2022/10/28 18:29:06;;;;;;;;;;;;;;;13.60;73.59;102197.69;5001610;28;19932;-89
2022/10/28 18:31:33;;;;;;;;;;;;;;;13.52;73.69;102195.72;5020787;28;19914;-89
2022/10/28 18:34:23;;;;;;;;;;;;;;;13.52;73.75;102198.44;4982267;28;20305;-87
2022/10/28 18:36:50;;;;;;;;;;;;;;;13.57;73.38;102198.84;5014799;28;19977;-91
2022/10/28 18:39:16;;;;;;;;;;;;;;;13.58;73.53;102189.75;5006763;28;20035;-87
2022/10/28 18:41:43;;;;;;;;;;;;;;;13.50;73.58;102195.84;5001821;28;19924;-88
2022/10/28 18:44:13;;;;;;;;;;;;;;;13.45;74.06;102194.59;4996860;28;19929;-88
2022/10/28 18:46:38;;;;;;;;;;;;;;;13.41;74.31;102193.16;4974761;28;19922;-89
2022/10/28 18:49:14;;;;;;;;;;;;;;;13.37;74.39;102191.72;4979196;28;20365;-89
2022/10/28 18:51:40;;;;;;;;;;;;;;;13.29;74.98;102193.28;4973553;28;20000;-87
2022/10/28 18:54:05;;;;;;;;;;;;;;;13.37;74.86;102191.72;4976497;28;19918;-88
2022/10/28 18:56:33;;;;;;;;;;;;;;;13.33;74.65;102191.19;4995706;28;19921;-88
2022/10/28 18:59:01;;;;;;;;;;;;;;;13.37;74.65;102189.03;4993355;28;19922;-89
2022/10/28 19:01:27;;;;;;;;;;;;;;;13.30;74.97;102192.31;4998312;28;20003;-88
2022/10/28 19:03:56;;;;;;;;;;;;;;;13.32;74.93;102188.59;4980764;28;20365;-88
2022/10/28 19:06:24;;;;;;;;;;;;;;;13.28;74.84;102191.59;5002760;28;19984;-90
2022/10/28 19:09:12;;;;;;;;;;;;;;;13.23;74.78;102193.84;5021945;28;19988;-90
2022/10/28 19:11:43;;;;;;;;;;;;;;;13.18;74.75;102206.94;5022926;28;19928;-90
2022/10/28 19:14:14;;;;;;;;;;;;;;;13.12;75.03;102202.06;5004603;28;20316;-90
2022/10/28 19:16:40;;;;;;;;;;;;;;;13.06;75.09;102200.78;4999330;28;19926;-88
2022/10/28 19:41:02;;;;;;;;;;;;;;;12.53;77.49;102213.72;4131810;23;19916;31
2022/10/28 21:59:23;;;;;;;;;;;;;;;11.44;79.71;102199.66;4141557;22;19929;-90
2022/10/28 22:01:51;;;;;;;;;;;;;;;11.38;80.13;102194.81;5051981;28;19925;-92
2022/10/28 22:09:47;;;;;;;;;;;;;;;11.17;81.03;102182.16;5065201;28;19912;-92
2022/10/28 22:23:38;;;;;;;;;;;;;;;11.06;81.27;102184.88;5159939;23;19914;-91
2022/10/28 22:26:08;;;;;;;;;;;;;;;11.11;80.67;102179.97;5057027;28;19913;-93
2022/10/28 22:28:43;;;;;;;;;;;;;;;11.14;80.48;102176.16;5050284;28;19956;-90
2022/10/28 22:55:10;;;;;;;;;;;;;;;10.78;82.58;102171.00;5280027;23;19926;-94
2022/10/28 22:58:20;;;;;;;;;;;;;;;10.80;82.65;102168.19;5028298;28;19925;-93
2022/10/28 23:19:29;;;;;;;;;;;;;;;10.83;81.94;102172.47;4229124;23;19930;-92
2022/10/28 23:22:02;;;;;;;;;;;;;;;10.78;82.77;102164.78;5009743;28;19921;-91
2022/10/28 23:24:51;;;;;;;;;;;;;;;10.80;82.98;102172.72;5000169;28;19925;-91
2022/10/28 23:27:43;;;;;;;;;;;;;;;10.83;82.47;102162.56;5010373;28;19912;-91
2022/10/28 23:30:48;;;;;;;;;;;;;;;10.86;82.32;102159.59;5003373;28;19914;-94
2022/10/28 23:33:49;;;;;;;;;;;;;;;10.82;82.87;102157.31;5003797;28;20381;-91
2022/10/28 23:36:54;;;;;;;;;;;;;;;10.80;82.54;102159.28;5017438;28;19924;-92
